createdAt,value
2019-04-10T00:02:09.927Z,13.55
2019-04-10T00:07:16.512Z,11.22
2019-04-10T00:12:19.158Z,13.22
2019-04-10T00:17:22.903Z,13.90
2019-04-10T00:22:26.378Z,13.00
2019-04-10T00:27:30.459Z,11.53
2019-04-10T00:32:34.182Z,12.35
2019-04-10T00:37:37.556Z,13.85
2019-04-10T00:42:41.361Z,10.78
2019-04-10T00:47:45.542Z,12.20
2019-04-10T00:52:48.956Z,12.03
2019-04-10T00:57:52.263Z,12.50
2019-04-10T01:02:56.751Z,12.00
2019-04-10T01:08:00.218Z,10.05
2019-04-10T01:13:03.521Z,12.90
2019-04-10T01:18:06.891Z,10.18
2019-04-10T01:23:10.259Z,12.33
2019-04-10T01:28:14.215Z,9.73
2019-04-10T01:33:18.619Z,8.83
2019-04-10T01:38:22.358Z,10.63
2019-04-10T01:43:26.596Z,9.85
2019-04-10T01:48:30.196Z,11.68
2019-04-10T01:53:35.623Z,12.68
2019-04-10T01:58:41.292Z,10.75
2019-04-10T02:03:44.862Z,11.65
2019-04-10T02:08:48.167Z,10.10
2019-04-10T02:13:51.816Z,10.55
2019-04-10T02:18:55.143Z,9.70
2019-04-10T02:23:58.701Z,10.43
2019-04-10T02:29:02.018Z,11.78
2019-04-10T02:34:07.568Z,12.68
2019-04-10T02:39:21.839Z,13.22
2019-04-10T02:44:16.439Z,13.45
2019-04-10T02:49:20.434Z,13.70
2019-04-10T02:54:25.088Z,13.15
2019-04-10T02:59:29.154Z,12.73
2019-04-10T03:04:33.075Z,10.13
2019-04-10T03:09:52.890Z,11.83
2019-04-10T03:14:45.177Z,15.60
2019-04-10T03:19:49.749Z,15.18
2019-04-10T03:24:52.769Z,11.38
2019-04-10T03:29:56.098Z,13.30
2019-04-10T03:35:04.753Z,16.10
2019-04-10T03:40:08.124Z,12.10
2019-04-10T03:45:13.592Z,11.33
2019-04-10T03:50:18.710Z,14.70
2019-04-10T03:55:22.938Z,13.28
2019-04-10T04:00:26.386Z,14.45
2019-04-10T04:05:30.776Z,14.90
2019-04-10T04:10:35.052Z,15.65
2019-04-10T04:15:39.098Z,15.45
2019-04-10T04:20:43.334Z,19.15
2019-04-10T04:25:46.816Z,17.37
2019-04-10T04:30:52.330Z,14.95
2019-04-10T04:35:55.196Z,17.75
2019-04-10T04:40:58.637Z,13.78
2019-04-10T04:46:03.215Z,14.93
2019-04-10T04:51:06.921Z,12.05
2019-04-10T04:56:10.216Z,15.13
2019-04-10T05:01:14.693Z,17.42
2019-04-10T05:06:18.299Z,15.40
2019-04-10T05:11:22.346Z,14.95
2019-04-10T05:16:25.748Z,17.67
2019-04-10T05:21:29.468Z,17.20
2019-04-10T05:26:32.814Z,14.18
2019-04-10T05:31:36.420Z,13.85
2019-04-10T05:36:40.017Z,12.55
2019-04-10T05:41:44.035Z,17.07
2019-04-10T05:46:47.619Z,13.45
2019-04-10T05:51:54.152Z,12.50
2019-04-10T05:56:58.998Z,12.45
2019-04-10T06:02:03.139Z,14.13
2019-04-10T06:07:06.703Z,16.42
2019-04-10T06:12:10.084Z,13.35
2019-04-10T06:17:14.168Z,11.65
2019-04-10T06:22:18.617Z,18.95
2019-04-10T06:27:22.217Z,12.03
2019-04-10T06:32:25.620Z,12.95
2019-04-10T06:37:28.982Z,15.40
2019-04-10T06:42:44.383Z,10.45
2019-04-10T06:47:38.254Z,10.00
2019-04-10T06:52:41.665Z,11.75
2019-04-10T06:57:50.861Z,9.90
2019-04-10T07:02:50.569Z,10.90
2019-04-10T07:08:01.813Z,24.02
2019-04-10T07:12:59.655Z,26.02
2019-04-10T07:18:03.191Z,46.73
2019-04-10T07:23:07.014Z,11.48
2019-04-10T07:28:11.953Z,11.43
2019-04-10T07:33:18.086Z,15.65
2019-04-10T07:38:22.731Z,13.25
2019-04-10T07:43:28.921Z,13.58
2019-04-10T07:48:31.537Z,10.98
2019-04-10T07:53:35.244Z,8.75
2019-04-10T07:58:39.843Z,10.23
2019-04-10T08:03:43.834Z,8.13
2019-04-10T08:08:47.306Z,12.53
2019-04-10T08:13:51.197Z,12.65
2019-04-10T08:18:56.833Z,8.23
2019-04-10T08:30:03.864Z,9.03
2019-04-10T08:35:07.379Z,15.30
2019-04-10T08:40:11.548Z,12.23
2019-04-10T08:45:15.035Z,10.10
2019-04-10T08:50:19.632Z,9.63
2019-04-10T08:55:24.036Z,11.20
2019-04-10T09:00:28.827Z,14.60
2019-04-10T09:05:33.291Z,14.93
2019-04-10T09:10:36.789Z,7.58
2019-04-10T09:15:42.265Z,8.75
2019-04-10T09:20:47.505Z,13.20
2019-04-10T09:25:51.253Z,10.48
2019-04-10T09:30:57.410Z,9.90
2019-04-10T09:36:00.810Z,8.75
2019-04-10T09:41:04.227Z,9.18
2019-04-10T09:46:08.446Z,11.68
2019-04-10T09:51:15.323Z,15.08
2019-04-10T09:56:19.909Z,11.57
2019-04-10T10:01:23.976Z,13.70
2019-04-10T10:06:33.056Z,12.68
2019-04-10T10:11:32.569Z,10.85
2019-04-10T10:16:36.075Z,9.68
2019-04-10T10:21:39.428Z,7.58
2019-04-10T10:26:44.556Z,12.73
2019-04-10T10:31:49.776Z,11.30
2019-04-10T10:36:53.285Z,7.05
2019-04-10T10:41:56.785Z,10.93
2019-04-10T10:47:00.272Z,7.97
2019-04-10T10:52:03.633Z,8.75
2019-04-10T10:57:07.110Z,8.25
2019-04-10T11:02:10.643Z,9.48
2019-04-10T11:07:14.494Z,13.10
2019-04-10T11:12:17.788Z,10.43
2019-04-10T11:17:22.185Z,12.00
2019-04-10T11:22:26.536Z,12.18
2019-04-10T11:27:30.055Z,9.55
2019-04-10T11:32:33.916Z,6.95
2019-04-10T11:42:42.959Z,8.38
2019-04-10T11:47:48.247Z,13.10
2019-04-10T11:52:54.121Z,7.42
2019-04-10T11:57:59.940Z,11.50
2019-04-10T12:03:04.874Z,11.40
2019-04-10T12:08:32.262Z,11.85
2019-04-10T12:13:16.445Z,13.45
2019-04-10T12:18:20.378Z,15.60
2019-04-10T12:23:25.135Z,12.45
2019-04-10T12:28:29.784Z,7.70
2019-04-10T12:33:33.734Z,14.43
2019-04-10T12:38:37.225Z,12.78
2019-04-10T12:43:41.386Z,8.28
2019-04-10T12:48:45.183Z,9.95
2019-04-10T12:53:48.756Z,7.28
2019-04-10T12:58:53.184Z,7.92
2019-04-10T13:03:57.844Z,9.93
2019-04-10T13:09:07.852Z,7.50
2019-04-10T13:14:06.928Z,6.90
2019-04-10T13:19:11.206Z,9.15
2019-04-10T13:24:15.356Z,6.08
2019-04-10T13:29:18.672Z,14.68
2019-04-10T13:34:22.884Z,10.43
2019-04-10T13:39:26.853Z,14.68
2019-04-10T13:44:30.813Z,10.38
2019-04-10T13:49:34.240Z,9.88
2019-04-10T13:54:38.807Z,10.98
2019-04-10T13:59:42.944Z,9.60
2019-04-10T14:04:47.265Z,12.50
2019-04-10T14:09:52.334Z,12.33
2019-04-10T14:14:57.368Z,17.85
2019-04-10T14:20:02.874Z,21.30
2019-04-10T14:25:07.937Z,13.45
2019-04-10T14:30:13.298Z,11.53
2019-04-10T14:35:16.853Z,11.95
2019-04-10T14:40:24.143Z,13.93
2019-04-10T14:45:27.738Z,22.35
2019-04-10T14:50:31.638Z,13.48
2019-04-10T14:55:35.528Z,15.85
2019-04-10T15:00:41.158Z,14.83
2019-04-10T15:05:50.548Z,13.72
2019-04-10T15:10:50.406Z,16.70
2019-04-10T15:15:54.767Z,18.42
2019-04-10T15:20:58.760Z,12.45
2019-04-10T15:26:03.848Z,12.73
2019-04-10T15:31:08.855Z,14.90
2019-04-10T15:36:12.660Z,17.23
2019-04-10T15:41:19.273Z,11.78
2019-04-10T15:46:23.188Z,15.30
2019-04-10T15:51:36.293Z,14.38
2019-04-10T15:56:40.181Z,14.18
2019-04-10T16:01:44.621Z,15.10
2019-04-10T16:06:47.998Z,18.42
2019-04-10T16:11:58.963Z,20.95
2019-04-10T16:17:22.317Z,16.90
2019-04-10T16:22:31.108Z,17.32
2019-04-10T16:27:34.614Z,17.33
2019-04-10T16:32:38.020Z,12.90
2019-04-10T16:37:41.878Z,18.80
2019-04-10T16:42:45.309Z,14.78
2019-04-10T16:47:48.605Z,17.95
2019-04-10T16:52:53.631Z,16.82
2019-04-10T16:57:56.972Z,15.63
2019-04-10T17:03:06.568Z,17.57
2019-04-10T17:08:12.347Z,14.03
2019-04-10T17:13:16.223Z,18.95
2019-04-10T17:18:19.781Z,18.23
2019-04-10T17:23:24.872Z,15.93
2019-04-10T17:28:28.456Z,15.23
2019-04-10T17:33:32.271Z,16.45
2019-04-10T17:38:36.509Z,15.05
2019-04-10T17:43:41.291Z,21.82
2019-04-10T17:48:44.767Z,14.05
2019-04-10T17:53:49.423Z,12.82
2019-04-10T17:58:54.244Z,17.90
2019-04-10T18:04:00.541Z,16.85
2019-04-10T18:09:03.317Z,13.80
2019-04-10T18:14:07.109Z,17.25
2019-04-10T18:19:12.508Z,16.12
2019-04-10T18:24:17.315Z,16.15
2019-04-10T18:29:21.146Z,11.63
2019-04-10T18:34:25.644Z,14.83
2019-04-10T18:39:29.042Z,14.87
2019-04-10T18:44:33.104Z,13.75
2019-04-10T18:49:36.511Z,13.50
2019-04-10T18:54:39.818Z,15.90
2019-04-10T18:59:51.128Z,19.87
2019-04-10T19:05:01.906Z,17.98
2019-04-10T19:10:06.812Z,16.23
2019-04-10T19:15:11.184Z,18.32
2019-04-10T19:20:15.656Z,19.00
2019-04-10T19:25:22.819Z,16.67
2019-04-10T19:30:37.381Z,17.75
2019-04-10T19:35:41.404Z,17.50
2019-04-10T19:40:45.840Z,16.85
2019-04-10T19:45:50.258Z,17.32
2019-04-10T19:50:53.922Z,18.55
2019-04-10T19:55:57.357Z,17.55
2019-04-10T20:01:12.741Z,17.02
2019-04-10T20:06:16.190Z,17.07
2019-04-10T20:11:31.304Z,18.35
2019-04-10T20:19:38.348Z,14.95
2019-04-10T20:24:45.586Z,15.03
2019-04-10T20:29:51.122Z,14.28
2019-04-10T20:35:00.600Z,15.30
2019-04-10T20:40:05.493Z,14.35
2019-04-10T20:45:09.345Z,13.58
2019-04-10T20:50:17.535Z,15.00
2019-04-10T20:55:25.832Z,14.60
2019-04-10T21:00:34.298Z,13.00
2019-04-10T21:05:37.937Z,15.20
2019-04-10T21:16:09.255Z,14.05
2019-04-10T21:21:16.902Z,12.45
2019-04-10T21:26:20.432Z,13.88
2019-04-10T21:31:34.601Z,16.05
2019-04-10T21:36:39.195Z,13.93
2019-04-10T21:41:42.644Z,13.80
2019-04-10T21:46:46.677Z,16.80
2019-04-10T21:51:50.110Z,15.72
2019-04-10T21:56:53.548Z,16.15
2019-04-10T22:01:57.688Z,18.62
2019-04-10T22:07:20.380Z,20.52
2019-04-10T22:12:31.133Z,17.10
2019-04-10T22:17:30.017Z,17.35
2019-04-10T22:22:33.630Z,20.23
2019-04-10T22:27:37.008Z,23.70
2019-04-10T22:32:40.918Z,20.68
2019-04-10T22:37:46.709Z,19.05
2019-04-10T22:42:51.332Z,21.82
2019-04-10T22:47:54.963Z,20.62
2019-04-10T22:52:59.225Z,21.73
2019-04-10T22:58:04.910Z,23.30
2019-04-10T23:03:08.320Z,26.10
2019-04-10T23:08:11.658Z,20.02
2019-04-10T23:13:16.005Z,24.47
2019-04-10T23:18:19.459Z,24.32
2019-04-10T23:23:25.150Z,24.40
2019-04-10T23:28:28.986Z,24.52
2019-04-10T23:33:34.470Z,21.30
2019-04-10T23:38:39.585Z,22.67
2019-04-10T23:43:42.515Z,23.95
2019-04-10T23:48:46.793Z,23.95
2019-04-10T23:53:50.941Z,25.35
2019-04-10T23:58:56.216Z,29.98
